Time;durP1;ratioP1;P1;durP2;ratioP2;P2;SDS_P1;SDS_P2;PMS_P1;PMS_P2;Temp;Humidity;BMP_temperature;BMP_pressure;BME280_temperature;BME280_humidity;BME280_pressure;Samples;Min_cycle;Max_cycle;Signal;HPM_P1;HPM_P2
2023/03/02 00:01:38;;;;;;;1.17;0.87;;;8.20;69.20;;;;;;6276811;22;20423;-76
2023/03/02 00:04:08;;;;;;;1.33;0.70;;;8.20;69.10;;;;;;6276352;22;19999;-76
2023/03/02 00:06:35;;;;;;;1.87;1.17;;;8.30;68.90;;;;;;6276418;22;19996;-74
2023/03/02 00:09:03;;;;;;;0.77;0.60;;;8.30;68.80;;;;;;6276117;22;20003;-76
2023/03/02 00:11:30;;;;;;;1.27;0.70;;;8.20;68.80;;;;;;6276084;22;20035;-77
2023/03/02 00:13:56;;;;;;;1.10;0.90;;;8.20;68.90;;;;;;6276237;22;20495;-76
2023/03/02 00:16:22;;;;;;;1.23;0.60;;;8.20;69.20;;;;;;6276030;22;20027;-76
2023/03/02 00:18:47;;;;;;;0.57;0.40;;;8.20;69.30;;;;;;6275874;22;20063;-76
2023/03/02 00:21:13;;;;;;;0.70;0.60;;;8.20;69.20;;;;;;6276362;22;20000;-76
2023/03/02 00:23:39;;;;;;;1.27;0.80;;;8.20;69.40;;;;;;6276439;22;20007;-75
2023/03/02 00:26:05;;;;;;;1.03;0.63;;;8.10;69.50;;;;;;6276211;22;20011;-74
2023/03/02 00:28:31;;;;;;;1.50;0.93;;;8.20;69.80;;;;;;6274489;22;20388;-76
2023/03/02 00:30:57;;;;;;;1.07;0.87;;;8.10;69.80;;;;;;6276264;22;20011;-77
2023/03/02 00:33:23;;;;;;;1.70;1.03;;;8.10;70.10;;;;;;6276196;22;20002;-77
2023/03/02 00:35:48;;;;;;;2.47;1.10;;;8.10;70.10;;;;;;6276203;22;20007;-77
2023/03/02 00:38:14;;;;;;;2.80;1.33;;;8.10;70.10;;;;;;6276339;22;20070;-77
2023/03/02 00:40:45;;;;;;;2.30;1.40;;;8.10;70.10;;;;;;6276283;22;20003;-77
2023/03/02 00:43:11;;;;;;;1.60;1.00;;;8.10;70.20;;;;;;6276224;22;20000;-76
2023/03/02 00:45:36;;;;;;;1.67;1.07;;;8.10;70.30;;;;;;6276186;22;20197;-76
2023/03/02 00:48:02;;;;;;;1.40;1.00;;;8.00;70.30;;;;;;6275895;22;20098;-75
2023/03/02 00:50:28;;;;;;;1.40;0.80;;;8.00;70.30;;;;;;6276055;22;20015;-76
2023/03/02 00:52:53;;;;;;;1.13;0.70;;;8.00;70.30;;;;;;6277365;22;20000;-75
2023/03/02 00:55:19;;;;;;;1.20;0.73;;;8.00;70.50;;;;;;6277952;22;20325;-76
2023/03/02 00:57:53;;;;;;;1.77;0.80;;;8.00;70.60;;;;;;6277993;22;20378;-75
2023/03/02 01:00:21;;;;;;;1.37;0.80;;;8.00;70.80;;;;;;6278259;22;20000;-75
2023/03/02 01:02:47;;;;;;;5.90;1.67;;;7.90;70.80;;;;;;6278033;22;20023;-77
2023/03/02 01:05:13;;;;;;;1.40;0.87;;;7.90;70.80;;;;;;6278080;22;20007;-77
2023/03/02 01:07:39;;;;;;;1.00;0.70;;;7.90;70.90;;;;;;6276597;22;20430;-76
2023/03/02 01:10:05;;;;;;;1.60;1.10;;;7.90;71.30;;;;;;6277974;22;20019;-73
2023/03/02 01:12:31;;;;;;;1.60;1.10;;;7.90;71.30;;;;;;6277970;22;20003;-76
2023/03/02 01:14:57;;;;;;;1.30;1.00;;;7.90;71.50;;;;;;6277830;22;20058;-77
2023/03/02 01:17:24;;;;;;;1.53;0.90;;;7.80;71.50;;;;;;6277891;22;20008;-76
2023/03/02 01:19:50;;;;;;;2.20;1.03;;;7.80;71.50;;;;;;6277928;22;19995;-77
2023/03/02 01:22:16;;;;;;;3.97;1.60;;;7.80;71.70;;;;;;6276400;22;20018;-73
2023/03/02 01:24:42;;;;;;;2.97;1.20;;;7.80;71.60;;;;;;6277731;22;20418;-76
2023/03/02 01:27:08;;;;;;;3.20;1.40;;;7.80;71.60;;;;;;6277536;22;20082;-73
2023/03/02 01:29:34;;;;;;;1.90;1.20;;;7.80;71.50;;;;;;6277716;22;20057;-76
2023/03/02 01:31:59;;;;;;;1.60;1.00;;;7.80;71.60;;;;;;6277747;22;20021;-76
2023/03/02 01:34:25;;;;;;;1.30;0.90;;;7.80;71.70;;;;;;6278023;22;20004;-76
2023/03/02 01:36:51;;;;;;;1.97;1.10;;;7.80;71.80;;;;;;6277839;22;20026;-76
2023/03/02 01:39:17;;;;;;;1.60;1.00;;;7.70;71.90;;;;;;6277650;22;19996;-77
2023/03/02 01:41:44;;;;;;;1.20;1.00;;;7.70;72.00;;;;;;6277975;22;20015;-73
2023/03/02 01:44:34;;;;;;;1.17;1.00;;;7.70;72.20;;;;;;6277682;22;20404;-74
2023/03/02 01:47:05;;;;;;;1.23;0.73;;;7.70;72.40;;;;;;6277639;22;20003;-75
2023/03/02 01:49:36;;;;;;;1.00;0.90;;;7.60;72.60;;;;;;6277875;22;20043;-75
2023/03/02 01:52:02;;;;;;;1.43;1.00;;;7.60;72.60;;;;;;6277262;22;20050;-76
2023/03/02 01:54:27;;;;;;;1.10;0.90;;;7.60;72.80;;;;;;6277432;22;20004;-73
2023/03/02 01:56:57;;;;;;;1.60;0.80;;;7.70;72.90;;;;;;6277657;22;20000;-75
2023/03/02 01:59:24;;;;;;;1.10;1.00;;;7.80;72.70;;;;;;6274269;22;20003;-76
2023/03/02 02:01:53;;;;;;;1.40;1.10;;;7.80;72.50;;;;;;6274435;22;20039;-76
2023/03/02 02:04:22;;;;;;;1.17;1.03;;;7.80;72.50;;;;;;6274650;22;20000;-76
2023/03/02 02:06:54;;;;;;;1.50;1.20;;;7.90;72.40;;;;;;6276851;22;20010;-74
2023/03/02 02:09:22;;;;;;;1.98;1.10;;;7.90;72.40;;;;;;6277200;22;20000;-76
2023/03/02 02:11:48;;;;;;;2.00;1.20;;;7.80;72.50;;;;;;6277345;22;20030;-76
2023/03/02 02:14:14;;;;;;;1.40;1.10;;;7.90;72.60;;;;;;6276947;22;20027;-74
2023/03/02 02:16:40;;;;;;;1.40;1.30;;;7.80;72.70;;;;;;6277113;22;20381;-76
2023/03/02 02:19:32;;;;;;;1.70;1.20;;;7.80;72.80;;;;;;6277329;22;20070;-76
2023/03/02 02:21:57;;;;;;;1.97;1.60;;;7.80;72.80;;;;;;6244903;22;20114;-76
2023/03/02 02:24:47;;;;;;;1.50;1.30;;;7.80;72.90;;;;;;6277477;22;20014;-76
2023/03/02 02:27:14;;;;;;;2.03;1.43;;;7.80;72.90;;;;;;6275901;22;20079;-77
2023/03/02 02:29:45;;;;;;;2.73;1.60;;;7.80;73.10;;;;;;6276663;22;20018;-74
2023/03/02 02:32:25;;;;;;;2.37;1.70;;;7.80;73.20;;;;;;6277212;22;20000;-76
2023/03/02 02:34:57;;;;;;;2.07;1.40;;;7.80;73.50;;;;;;6277246;22;19999;-76
2023/03/02 02:37:29;;;;;;;2.70;1.55;;;7.70;73.50;;;;;;6275050;22;20003;-74
2023/03/02 02:39:56;;;;;;;1.70;1.30;;;7.70;73.50;;;;;;6277001;22;20011;-76
2023/03/02 02:42:31;;;;;;;2.43;1.50;;;7.70;73.50;;;;;;6275685;22;20378;-76
2023/03/02 02:45:00;;;;;;;2.23;1.50;;;7.80;73.50;;;;;;6275524;22;20004;-76
2023/03/02 02:47:27;;;;;;;1.90;1.33;;;7.70;73.50;;;;;;6276830;22;20414;-76
2023/03/02 02:49:54;;;;;;;1.50;1.40;;;7.80;73.60;;;;;;6276479;22;20068;-76
2023/03/02 02:52:23;;;;;;;1.90;1.47;;;7.70;73.50;;;;;;6276877;22;20002;-73
2023/03/02 02:54:52;;;;;;;1.83;1.50;;;7.80;73.70;;;;;;6277465;22;20003;-74
2023/03/02 02:57:19;;;;;;;1.80;1.30;;;7.80;73.80;;;;;;6277163;22;20018;-76
2023/03/02 02:59:51;;;;;;;2.03;1.50;;;7.80;73.90;;;;;;6277151;22;20004;-76
2023/03/02 03:02:23;;;;;;;6.30;1.90;;;7.80;74.00;;;;;;6277038;22;20426;-76
2023/03/02 03:04:49;;;;;;;8.50;1.52;;;7.80;74.10;;;;;;6277095;22;19996;-76
2023/03/02 03:07:23;;;;;;;1.60;1.40;;;7.80;74.10;;;;;;6277115;22;20007;-76
2023/03/02 03:09:59;;;;;;;3.13;1.70;;;7.80;74.00;;;;;;6276701;22;20019;-76
2023/03/02 03:12:27;;;;;;;2.27;1.63;;;7.80;74.00;;;;;;6276815;22;20022;-74
2023/03/02 03:14:54;;;;;;;4.50;1.80;;;7.80;74.10;;;;;;6276428;22;20065;-77
2023/03/02 03:17:20;;;;;;;1.63;1.40;;;7.80;74.30;;;;;;6276936;22;20003;-76
2023/03/02 03:19:46;;;;;;;2.50;1.70;;;7.70;74.50;;;;;;6276817;22;20308;-76
2023/03/02 03:22:14;;;;;;;5.20;1.30;;;7.70;74.80;;;;;;6276451;22;19995;-76
2023/03/02 03:24:42;;;;;;;1.73;1.27;;;7.70;74.70;;;;;;6276500;22;20004;-75
2023/03/02 03:27:09;;;;;;;2.30;1.63;;;7.70;74.80;;;;;;6275225;22;20050;-75
2023/03/02 03:29:36;;;;;;;1.53;1.40;;;7.70;74.90;;;;;;6276791;22;20019;-75
2023/03/02 03:32:03;;;;;;;1.73;1.43;;;7.60;75.00;;;;;;6276808;22;20000;-77
2023/03/02 03:34:30;;;;;;;2.10;1.47;;;7.60;75.00;;;;;;6276573;22;20680;-76
2023/03/02 03:37:00;;;;;;;2.23;1.63;;;7.60;75.20;;;;;;6276200;22;20004;-74
2023/03/02 03:39:27;;;;;;;2.60;2.10;;;7.60;75.40;;;;;;6276386;22;20079;-76
2023/03/02 03:41:53;;;;;;;2.43;1.53;;;7.60;75.30;;;;;;6277166;22;20006;-75
2023/03/02 03:44:19;;;;;;;3.47;2.03;;;7.60;75.40;;;;;;6276633;22;20003;-76
2023/03/02 03:46:44;;;;;;;6.23;2.23;;;7.60;75.60;;;;;;6276566;22;20155;-74
2023/03/02 03:49:10;;;;;;;2.67;2.00;;;7.60;75.60;;;;;;6276170;22;20016;-76
2023/03/02 03:51:36;;;;;;;2.40;1.90;;;7.60;75.50;;;;;;6276508;22;20007;-75
2023/03/02 03:54:03;;;;;;;2.50;1.97;;;7.60;76.20;;;;;;6276667;22;19996;-75
2023/03/02 03:56:35;;;;;;;2.83;1.63;;;7.60;75.60;;;;;;6276255;22;20012;-74
2023/03/02 03:59:07;;;;;;;2.00;1.70;;;7.70;75.70;;;;;;6276314;22;20027;-75
2023/03/02 04:01:38;;;;;;;2.30;1.70;;;7.70;75.70;;;;;;6276269;22;20000;-76
2023/03/02 04:04:05;;;;;;;2.17;1.60;;;7.60;75.70;;;;;;6276568;22;20344;-76
2023/03/02 04:06:31;;;;;;;2.10;1.67;;;7.70;75.70;;;;;;6276558;22;20526;-76
2023/03/02 04:09:03;;;;;;;1.93;1.53;;;7.60;75.70;;;;;;6276349;22;20038;-76
2023/03/02 04:11:38;;;;;;;2.03;1.50;;;7.70;75.70;;;;;;6276862;22;20015;-76
2023/03/02 04:14:04;;;;;;;3.63;2.10;;;7.60;75.70;;;;;;6276112;22;20000;-74
2023/03/02 04:16:30;;;;;;;2.50;1.70;;;7.70;75.80;;;;;;6276203;22;20003;-75
2023/03/02 04:18:57;;;;;;;2.53;1.93;;;7.60;75.90;;;;;;6276348;22;20054;-76
2023/03/02 04:21:23;;;;;;;2.83;1.93;;;7.60;75.90;;;;;;6276440;22;19999;-74
2023/03/02 04:23:49;;;;;;;2.23;1.80;;;7.60;75.90;;;;;;6275981;22;19996;-75
2023/03/02 04:26:15;;;;;;;2.70;2.03;;;7.60;75.80;;;;;;6276276;22;20007;-76
2023/03/02 04:28:41;;;;;;;2.83;1.80;;;7.60;75.80;;;;;;6276139;22;20503;-74
2023/03/02 04:31:07;;;;;;;4.37;2.33;;;7.60;75.90;;;;;;6276320;22;20058;-76
2023/03/02 04:33:33;;;;;;;3.30;2.07;;;7.60;76.00;;;;;;6276053;22;20003;-76
2023/03/02 04:35:59;;;;;;;3.20;2.57;;;7.60;76.10;;;;;;6276302;22;20000;-77
2023/03/02 04:38:28;;;;;;;3.47;2.70;;;7.60;76.20;;;;;;6276308;22;20046;-76
2023/03/02 04:40:57;;;;;;;4.10;2.97;;;7.60;76.40;;;;;;6276421;22;20007;-76
2023/03/02 04:43:24;;;;;;;3.63;2.63;;;7.60;76.30;;;;;;6275924;22;20004;-76
2023/03/02 04:45:51;;;;;;;8.47;2.80;;;7.60;76.30;;;;;;6275819;22;20331;-76
2023/03/02 04:48:17;;;;;;;3.70;2.60;;;7.60;76.20;;;;;;6275633;22;20016;-74
2023/03/02 04:50:43;;;;;;;5.20;3.07;;;7.70;76.20;;;;;;6276276;22;20099;-76
2023/03/02 04:53:10;;;;;;;4.27;2.53;;;7.70;76.20;;;;;;6275915;22;20074;-76
2023/03/02 04:55:37;;;;;;;4.07;2.93;;;7.70;76.30;;;;;;6276196;22;20004;-76
2023/03/02 04:58:03;;;;;;;3.07;2.37;;;7.70;76.40;;;;;;6275993;22;20004;-76
2023/03/02 05:00:32;;;;;;;3.43;2.80;;;7.70;76.30;;;;;;6275988;22;20422;-76
2023/03/02 05:02:59;;;;;;;3.93;2.20;;;7.70;76.30;;;;;;6275611;22;20006;-76
2023/03/02 05:05:25;;;;;;;2.50;2.10;;;7.70;76.30;;;;;;6276013;22;20442;-75
2023/03/02 05:07:51;;;;;;;3.07;1.87;;;7.80;76.40;;;;;;6276038;22;19996;-76
2023/03/02 05:10:18;;;;;;;2.90;2.00;;;7.80;76.30;;;;;;6275623;22;20069;-76
2023/03/02 05:12:53;;;;;;;2.40;2.00;;;7.80;76.30;;;;;;6276187;22;19999;-75
2023/03/02 05:15:25;;;;;;;2.80;2.00;;;7.80;76.40;;;;;;6276044;22;20003;-75
2023/03/02 05:17:51;;;;;;;2.10;1.80;;;7.90;76.20;;;;;;6276276;22;20008;-76
2023/03/02 05:20:17;;;;;;;2.87;1.80;;;7.80;76.00;;;;;;6275956;22;20039;-76
2023/03/02 05:22:43;;;;;;;2.17;1.60;;;7.90;76.10;;;;;;6275495;22;19996;-75
2023/03/02 05:25:09;;;;;;;3.57;1.97;;;7.90;76.20;;;;;;6276352;22;20094;-76
2023/03/02 05:27:35;;;;;;;2.93;2.00;;;7.90;76.20;;;;;;6275973;22;20105;-74
2023/03/02 05:30:03;;;;;;;3.13;1.77;;;7.90;76.20;;;;;;6275652;22;20011;-75
2023/03/02 05:32:28;;;;;;;2.90;2.10;;;7.90;75.90;;;;;;6276087;22;20329;-76
2023/03/02 05:34:54;;;;;;;3.03;1.87;;;7.90;75.90;;;;;;6275683;22;20075;-75
2023/03/02 05:37:20;;;;;;;2.17;1.60;;;7.90;75.90;;;;;;6275824;22;20004;-71
2023/03/02 05:39:45;;;;;;;2.53;2.00;;;8.00;75.90;;;;;;6277840;22;20003;-76
2023/03/02 05:42:11;;;;;;;5.33;2.30;;;8.00;75.80;;;;;;6278002;22;20003;-75
2023/03/02 05:44:37;;;;;;;4.63;2.27;;;8.00;75.80;;;;;;6277836;22;20026;-75
2023/03/02 05:47:02;;;;;;;5.37;2.57;;;7.90;75.80;;;;;;6277293;22;20377;-75
2023/03/02 05:49:28;;;;;;;7.00;2.80;;;7.90;75.90;;;;;;6277058;22;20098;-76
2023/03/02 05:51:54;;;;;;;2.40;1.90;;;7.90;76.00;;;;;;6277780;22;20304;-70
2023/03/02 05:54:19;;;;;;;2.50;1.83;;;7.90;76.10;;;;;;6278048;22;20095;-75
2023/03/02 05:56:45;;;;;;;3.83;2.47;;;7.90;76.20;;;;;;6277147;22;20407;-77
2023/03/02 05:59:10;;;;;;;2.70;2.30;;;7.80;76.30;;;;;;6277253;22;20334;-75
2023/03/02 06:01:37;;;;;;;2.90;2.30;;;7.80;76.60;;;;;;6277804;22;20419;-74
2023/03/02 06:04:03;;;;;;;2.97;2.37;;;7.80;77.00;;;;;;6277532;22;20486;-77
2023/03/02 06:06:29;;;;;;;3.40;2.20;;;7.80;77.30;;;;;;6277556;22;20027;-74
2023/03/02 06:08:54;;;;;;;4.07;2.33;;;7.80;77.20;;;;;;6277454;22;20003;-74
2023/03/02 06:11:20;;;;;;;4.13;2.70;;;7.80;77.30;;;;;;6277350;22;20014;-73
2023/03/02 06:13:45;;;;;;;4.27;3.00;;;7.70;77.20;;;;;;6277660;22;20003;-75
2023/03/02 06:16:11;;;;;;;4.20;2.80;;;7.80;77.30;;;;;;6277637;22;20002;-75
2023/03/02 06:18:37;;;;;;;3.07;2.27;;;7.80;77.40;;;;;;6275838;22;19999;-75
2023/03/02 06:21:03;;;;;;;4.73;2.40;;;7.80;77.30;;;;;;6277327;22;20011;-75
2023/03/02 06:23:29;;;;;;;3.30;2.40;;;7.80;77.30;;;;;;6276928;22;20000;-75
2023/03/02 06:25:56;;;;;;;4.47;2.40;;;7.80;77.40;;;;;;6275864;22;20011;-76
2023/03/02 06:28:23;;;;;;;3.43;2.10;;;7.80;77.50;;;;;;6277827;22;20004;-75
2023/03/02 06:30:51;;;;;;;2.87;1.70;;;7.80;77.50;;;;;;6277429;22;20011;-75
2023/03/02 06:33:19;;;;;;;2.97;2.03;;;7.80;77.40;;;;;;6277432;22;20071;-70
2023/03/02 06:35:46;;;;;;;3.13;2.20;;;7.80;77.30;;;;;;6276759;22;19999;-69
2023/03/02 06:38:12;;;;;;;4.83;2.80;;;7.90;77.50;;;;;;6277168;22;20431;-69
2023/03/02 06:40:37;;;;;;;2.63;2.00;;;7.90;77.40;;;;;;6277102;22;20004;-70
2023/03/02 06:43:03;;;;;;;4.93;1.70;;;7.90;77.40;;;;;;6275472;22;20012;-76
2023/03/02 06:45:32;;;;;;;7.90;2.20;;;8.00;77.30;;;;;;6277086;22;20031;-75
2023/03/02 06:47:58;;;;;;;13.20;2.73;;;8.00;77.20;;;;;;6277204;22;20016;-77
2023/03/02 06:50:24;;;;;;;2.77;1.60;;;8.00;77.10;;;;;;6274614;22;20012;-77
2023/03/02 06:52:49;;;;;;;7.47;1.87;;;8.00;76.90;;;;;;6276969;22;20004;-74
2023/03/02 06:55:15;;;;;;;3.50;1.90;;;8.10;76.70;;;;;;6277031;22;20042;-77
2023/03/02 06:57:41;;;;;;;3.10;1.67;;;8.10;76.70;;;;;;6276899;22;19995;-74
2023/03/02 07:00:11;;;;;;;3.33;1.90;;;8.20;76.50;;;;;;6276873;22;20369;-70
2023/03/02 07:02:37;;;;;;;2.87;1.60;;;8.30;76.20;;;;;;6276844;22;20083;-74
2023/03/02 07:05:04;;;;;;;1.80;1.50;;;8.30;75.90;;;;;;6277024;22;20334;-76
2023/03/02 07:07:30;;;;;;;5.30;1.60;;;8.30;75.70;;;;;;6276213;22;19995;-76
2023/03/02 07:09:55;;;;;;;5.47;1.70;;;8.30;75.60;;;;;;6275125;22;20014;-78
2023/03/02 07:12:21;;;;;;;2.93;1.80;;;8.30;75.50;;;;;;6275916;22;20101;-77
2023/03/02 07:14:46;;;;;;;4.27;1.90;;;8.30;75.50;;;;;;6275721;22;20010;-76
2023/03/02 07:17:12;;;;;;;4.77;1.70;;;8.40;75.50;;;;;;6275426;22;20318;-77
2023/03/02 07:19:38;;;;;;;3.10;1.77;;;8.40;75.50;;;;;;6275948;22;20454;-76
2023/03/02 07:22:04;;;;;;;4.03;1.60;;;8.40;75.50;;;;;;6276213;22;20007;-76
2023/03/02 07:24:31;;;;;;;2.43;1.60;;;8.40;75.40;;;;;;6276340;22;20004;-77
2023/03/02 07:26:57;;;;;;;2.23;1.63;;;8.40;75.20;;;;;;6275903;22;20000;-76
2023/03/02 07:29:22;;;;;;;3.10;1.47;;;8.40;75.10;;;;;;6275790;22;20039;-75
2023/03/02 07:31:48;;;;;;;2.60;1.90;;;8.50;75.00;;;;;;6276012;22;20496;-75
2023/03/02 07:34:15;;;;;;;1.63;1.30;;;8.50;75.00;;;;;;6275885;22;20015;-74
2023/03/02 07:36:41;;;;;;;1.50;1.10;;;8.50;75.40;;;;;;6275361;22;20471;-76
2023/03/02 07:39:06;;;;;;;1.87;1.50;;;8.50;75.20;;;;;;6275663;22;20077;-72
2023/03/02 07:41:32;;;;;;;1.80;1.20;;;8.60;74.80;;;;;;6276210;22;20284;-76
2023/03/02 07:43:58;;;;;;;3.23;1.20;;;8.60;74.90;;;;;;6276176;22;20007;-76
2023/03/02 07:46:23;;;;;;;2.87;1.50;;;8.60;74.40;;;;;;6276132;22;20000;-76
2023/03/02 07:48:49;;;;;;;2.13;1.40;;;8.60;74.00;;;;;;6275468;22;20077;-77
2023/03/02 07:51:15;;;;;;;1.97;1.30;;;8.60;74.00;;;;;;6276167;22;20011;-74
2023/03/02 07:53:40;;;;;;;6.10;1.60;;;8.70;73.90;;;;;;6276084;22;19995;-76
2023/03/02 07:56:10;;;;;;;7.07;1.43;;;8.60;73.90;;;;;;6275890;22;20018;-75
2023/03/02 07:58:36;;;;;;;5.43;1.57;;;8.60;74.00;;;;;;6274589;22;19999;-74
2023/03/02 08:01:02;;;;;;;24.83;2.10;;;8.60;74.30;;;;;;6275874;22;20010;-74
2023/03/02 08:03:28;;;;;;;2.43;1.40;;;8.70;74.70;;;;;;6276262;22;20007;-73
2023/03/02 08:05:54;;;;;;;2.53;1.57;;;8.70;74.70;;;;;;6275838;22;20386;-75
2023/03/02 08:08:20;;;;;;;2.10;1.30;;;8.70;74.00;;;;;;6275489;22;20381;-75
2023/03/02 08:10:45;;;;;;;3.20;1.40;;;8.70;73.90;;;;;;6275737;22;20012;-75
2023/03/02 08:13:11;;;;;;;1.83;1.30;;;8.70;73.70;;;;;;6275787;22;20041;-75
2023/03/02 08:15:37;;;;;;;2.27;1.37;;;8.70;73.70;;;;;;6275767;22;20004;-75
2023/03/02 08:18:02;;;;;;;1.13;0.90;;;8.80;73.80;;;;;;6275161;22;20019;-73
2023/03/02 08:20:28;;;;;;;3.13;1.37;;;8.80;73.70;;;;;;6275811;22;20007;-74
2023/03/02 08:22:54;;;;;;;9.83;1.17;;;8.80;73.90;;;;;;6275695;22;20027;-75
2023/03/02 08:25:20;;;;;;;1.77;1.20;;;8.90;73.70;;;;;;6274851;22;20000;-76
2023/03/02 08:27:46;;;;;;;1.50;1.10;;;8.90;73.70;;;;;;6276469;22;19996;-75
2023/03/02 08:30:12;;;;;;;1.73;1.00;;;8.90;73.70;;;;;;6276358;22;20057;-74
2023/03/02 08:32:38;;;;;;;2.23;0.90;;;8.90;73.70;;;;;;6276437;22;20061;-72
2023/03/02 08:35:05;;;;;;;4.37;1.17;;;9.00;73.50;;;;;;6276271;22;20004;-74
2023/03/02 08:37:30;;;;;;;2.33;1.17;;;9.00;73.50;;;;;;6276500;22;20041;-73
2023/03/02 08:39:56;;;;;;;1.03;0.93;;;9.00;73.30;;;;;;6276503;22;20456;-72
2023/03/02 08:42:22;;;;;;;1.70;1.10;;;9.00;73.40;;;;;;6276238;22;19996;-69
2023/03/02 08:44:48;;;;;;;3.00;1.27;;;9.10;73.50;;;;;;6274259;22;20010;-72
2023/03/02 08:47:13;;;;;;;2.43;1.20;;;9.00;73.70;;;;;;6275566;22;20004;-73
2023/03/02 08:49:39;;;;;;;1.87;1.10;;;9.10;73.60;;;;;;6276095;22;20099;-76
2023/03/02 08:52:05;;;;;;;2.00;1.00;;;9.10;73.60;;;;;;6276333;22;20004;-72
2023/03/02 08:54:33;;;;;;;1.37;0.97;;;9.20;73.50;;;;;;6276162;22;20508;-73
2023/03/02 08:57:00;;;;;;;5.90;1.23;;;9.20;73.50;;;;;;6275389;22;19996;-73
2023/03/02 08:59:26;;;;;;;1.30;0.80;;;9.20;73.50;;;;;;6275613;22;20014;-72
2023/03/02 09:01:51;;;;;;;1.10;0.70;;;9.30;73.50;;;;;;6275161;22;20027;-73
2023/03/02 09:04:17;;;;;;;1.80;1.03;;;9.30;73.50;;;;;;6275942;22;20004;-73
2023/03/02 09:06:44;;;;;;;1.27;0.73;;;9.30;73.50;;;;;;6275768;22;19996;-73
2023/03/02 09:09:12;;;;;;;1.43;1.00;;;9.30;73.30;;;;;;6275624;22;20026;-73
2023/03/02 09:11:38;;;;;;;1.83;0.90;;;9.30;73.00;;;;;;6275965;22;20008;-72
2023/03/02 09:14:04;;;;;;;1.73;0.80;;;9.40;73.50;;;;;;6276571;22;20000;-72
2023/03/02 09:16:30;;;;;;;1.97;1.00;;;9.40;73.40;;;;;;6278064;22;20035;-73
2023/03/02 09:18:56;;;;;;;2.27;1.00;;;9.40;73.00;;;;;;6278307;22;20008;-72
2023/03/02 09:21:23;;;;;;;2.67;1.03;;;9.40;72.40;;;;;;6277996;22;20031;-73
2023/03/02 09:23:52;;;;;;;1.90;0.93;;;9.50;72.40;;;;;;6277895;22;20030;-72
2023/03/02 09:26:19;;;;;;;1.33;1.20;;;9.50;72.50;;;;;;6278095;22;20003;-72
2023/03/02 09:28:44;;;;;;;1.63;1.10;;;9.50;72.10;;;;;;6277956;22;20008;-71
2023/03/02 09:31:10;;;;;;;2.20;1.07;;;9.60;71.90;;;;;;6277882;22;20007;-72
2023/03/02 09:33:36;;;;;;;1.40;1.00;;;9.60;71.50;;;;;;6276705;22;20000;-72
2023/03/02 09:36:10;;;;;;;2.20;1.30;;;9.60;71.40;;;;;;6277712;22;20026;-73
2023/03/02 09:38:36;;;;;;;1.90;1.20;;;9.60;71.50;;;;;;6276379;22;20391;-71
2023/03/02 09:41:20;;;;;;;3.10;1.23;;;9.60;71.90;;;;;;6277761;22;20007;-72
2023/03/02 09:43:58;;;;;;;2.00;0.90;;;9.60;71.80;;;;;;6277570;22;20000;-73
2023/03/02 09:46:43;;;;;;;2.40;1.20;;;9.60;71.50;;;;;;6275422;22;20004;-73
2023/03/02 09:49:24;;;;;;;1.80;1.23;;;9.60;71.10;;;;;;6275462;22;20473;-72
2023/03/02 09:52:10;;;;;;;3.33;1.27;;;9.70;70.90;;;;;;6278169;22;20008;-72
2023/03/02 09:54:36;;;;;;;4.93;1.30;;;9.60;70.80;;;;;;6277808;22;20058;-72
2023/03/02 09:57:03;;;;;;;2.00;1.00;;;9.60;70.50;;;;;;6278084;22;20368;-73
2023/03/02 09:59:55;;;;;;;2.53;1.30;;;9.60;70.40;;;;;;6277722;22;20075;-72
2023/03/02 10:02:34;;;;;;;2.20;1.17;;;9.70;70.60;;;;;;6277640;22;20006;-71
2023/03/02 10:05:05;;;;;;;1.83;1.23;;;9.70;70.10;;;;;;6277905;22;20529;-71
2023/03/02 10:07:32;;;;;;;2.47;1.10;;;9.70;70.10;;;;;;6277868;22;20026;-71
2023/03/02 10:10:23;;;;;;;2.00;1.23;;;9.70;70.50;;;;;;6277723;22;20035;-71
2023/03/02 10:13:01;;;;;;;2.27;1.40;;;9.70;70.50;;;;;;6277678;22;20073;-71
2023/03/02 10:15:43;;;;;;;3.27;1.20;;;9.80;70.20;;;;;;6276405;22;20011;-71
2023/03/02 10:18:23;;;;;;;5.38;3.70;;;9.80;69.80;;;;;;6277607;22;20010;-71
2023/03/02 10:20:53;;;;;;;1.47;1.17;;;9.80;70.40;;;;;;6277388;22;20003;-72
2023/03/02 10:23:48;;;;;;;1.70;1.00;;;9.90;70.90;;;;;;6277243;22;20023;-71
2023/03/02 10:26:14;;;;;;;0.70;0.67;;;9.90;71.20;;;;;;6250650;22;20011;-71
2023/03/02 10:28:48;;;;;;;3.40;1.90;;;9.90;70.10;;;;;;6277476;22;20008;-72
2023/03/02 10:31:26;;;;;;;1.15;1.02;;;10.00;70.90;;;;;;6277378;22;20014;-70
2023/03/02 10:33:51;;;;;;;2.50;1.17;;;10.00;71.50;;;;;;6277551;22;20430;-71
2023/03/02 10:36:25;;;;;;;5.17;1.20;;;10.10;70.20;;;;;;6277659;22;20000;-72
2023/03/02 10:38:52;;;;;;;1.43;0.80;;;10.20;70.20;;;;;;6277442;22;20075;-72
2023/03/02 10:41:38;;;;;;;3.27;0.90;;;10.30;71.00;;;;;;6276283;22;20004;-71
2023/03/02 10:44:13;;;;;;;1.50;0.97;;;10.30;69.70;;;;;;6277308;22;20255;-72
2023/03/02 10:46:41;;;;;;;1.10;0.80;;;10.40;69.90;;;;;;6275478;22;20180;-71
2023/03/02 10:49:25;;;;;;;2.50;0.63;;;10.40;69.40;;;;;;6275794;22;20016;-72
2023/03/02 10:51:56;;;;;;;1.93;0.90;;;10.50;68.80;;;;;;6276320;22;20008;-71
2023/03/02 10:54:22;;;;;;;1.73;1.27;;;10.50;69.30;;;;;;6277104;22;20000;-72
2023/03/02 10:56:51;;;;;;;4.67;0.90;;;10.60;69.60;;;;;;6277400;22;20000;-71
2023/03/02 10:59:39;;;;;;;2.67;1.10;;;10.60;68.30;;;;;;6277327;22;19995;-71
2023/03/02 11:02:23;;;;;;;1.27;0.93;;;10.60;68.10;;;;;;6277308;22;20000;-72
2023/03/02 11:04:57;;;;;;;1.00;0.67;;;10.70;67.90;;;;;;6277084;22;20031;-71
2023/03/02 11:07:27;;;;;;;1.30;0.90;;;10.70;67.60;;;;;;6277232;22;20000;-71
2023/03/02 11:10:02;;;;;;;1.03;0.93;;;10.70;68.00;;;;;;6277103;22;20018;-70
2023/03/02 11:12:29;;;;;;;3.03;1.17;;;10.80;67.30;;;;;;6277183;22;20011;-71
2023/03/02 11:15:24;;;;;;;1.50;1.35;;;10.80;67.30;;;;;;6277263;22;20003;-72
2023/03/02 11:18:24;;;;;;;1.60;1.10;;;10.80;67.40;;;;;;6276869;22;20073;-72
2023/03/02 11:20:54;;;;;;;1.20;1.10;;;10.80;67.20;;;;;;6272260;22;20007;-70
2023/03/02 11:23:43;;;;;;;3.83;1.38;;;10.90;67.10;;;;;;6276733;22;19999;-70
2023/03/02 11:26:15;;;;;;;3.42;1.38;;;11.00;67.00;;;;;;6276379;22;20000;-71
2023/03/02 11:28:50;;;;;;;4.13;1.67;;;11.20;67.30;;;;;;6276895;22;20004;-71
2023/03/02 11:31:39;;;;;;;4.60;1.42;;;11.30;67.00;;;;;;6274851;22;20039;-71
2023/03/02 11:34:42;;;;;;;6.13;1.30;;;11.30;66.20;;;;;;6276547;22;20062;-70
2023/03/02 11:37:35;;;;;;;2.00;1.27;;;11.40;64.90;;;;;;6276222;22;20000;-70
2023/03/02 11:40:18;;;;;;;3.17;1.35;;;11.40;65.40;;;;;;6276419;22;20006;-71
2023/03/02 11:42:44;;;;;;;;;;;11.40;64.90;;;;;;6275408;22;20064;-71
2023/03/02 11:45:13;;;;;;;5.93;1.97;;;11.40;65.60;;;;;;6276437;22;19899;-71
2023/03/02 11:47:44;;;;;;;9.65;1.50;;;11.50;66.00;;;;;;6276047;22;20007;-71
2023/03/02 11:50:13;;;;;;;3.92;1.40;;;11.50;64.50;;;;;;6275135;22;20074;-71
2023/03/02 11:52:45;;;;;;;1.98;1.42;;;11.50;64.50;;;;;;6276561;22;19996;-71
2023/03/02 11:55:21;;;;;;;3.38;1.50;;;11.40;64.80;;;;;;6276920;22;20007;-68
2023/03/02 11:57:54;;;;;;;2.85;1.70;;;11.50;64.50;;;;;;6275122;22;20015;-72
2023/03/02 12:00:27;;;;;;;;;;;11.40;64.90;;;;;;6275422;22;20073;-70
2023/03/02 12:03:14;;;;;;;3.25;1.90;;;11.40;64.20;;;;;;6276503;22;19961;-71
2023/03/02 12:05:42;;;;;;;1.70;1.40;;;11.40;64.30;;;;;;6276384;22;20099;-70
2023/03/02 12:08:20;;;;;;;2.78;1.52;;;11.40;64.70;;;;;;6276178;22;20003;-72
2023/03/02 12:11:03;;;;;;;3.50;1.80;;;11.40;65.00;;;;;;6275619;22;20012;-72
2023/03/02 12:13:36;;;;;;;1.90;1.55;;;11.40;65.40;;;;;;6274849;22;19999;-72
2023/03/02 12:16:35;;;;;;;5.97;1.85;;;11.40;65.80;;;;;;6276278;22;20003;-72
2023/03/02 12:19:15;;;;;;;4.68;1.60;;;11.40;65.30;;;;;;6241518;22;20000;-71
2023/03/02 12:22:01;;;;;;;2.30;1.50;;;11.50;65.30;;;;;;6275888;22;20078;-72
2023/03/02 12:24:35;;;;;;;2.83;1.77;;;11.70;65.40;;;;;;6275869;22;20004;-72
2023/03/02 12:27:24;;;;;;;6.07;1.67;;;11.80;64.90;;;;;;6275960;22;19995;-71
2023/03/02 12:30:08;;;;;;;1.92;1.60;;;12.00;64.20;;;;;;6276045;22;20422;-71
2023/03/02 12:32:34;;;;;;;3.92;1.85;;;12.20;63.90;;;;;;6275744;22;20044;-72
2023/03/02 12:35:08;;;;;;;5.20;1.60;;;12.40;63.40;;;;;;6275780;22;19996;-73
2023/03/02 12:37:47;;;;;;;3.40;1.50;;;12.60;63.20;;;;;;6273271;22;20008;-72
2023/03/02 12:40:34;;;;;;;3.15;1.60;;;12.70;62.70;;;;;;6275409;22;20004;-70
2023/03/02 12:43:08;;;;;;;2.25;1.65;;;12.90;62.40;;;;;;6275073;22;20010;-70
2023/03/02 12:46:14;;;;;;;3.70;1.75;;;13.00;61.20;;;;;;6274833;22;20031;-69
2023/03/02 12:49:24;;;;;;;3.35;1.85;;;13.10;60.80;;;;;;6266101;22;20024;-71
2023/03/02 12:52:17;;;;;;;2.42;1.70;;;13.10;59.80;;;;;;6268774;22;20386;-72
2023/03/02 12:54:43;;;;;;;;;;;13.00;60.00;;;;;;6275793;22;20034;-70
2023/03/02 12:57:19;;;;;;;2.05;1.70;;;12.90;59.20;;;;;;6274947;22;19956;-70
2023/03/02 13:00:14;;;;;;;2.53;1.70;;;12.70;59.30;;;;;;6275584;22;20000;-72
2023/03/02 13:02:46;;;;;;;3.10;1.70;;;12.60;60.30;;;;;;6273531;22;20008;-72
2023/03/02 13:05:27;;;;;;;2.55;1.70;;;12.60;61.00;;;;;;6275883;22;20027;-71
2023/03/02 13:07:56;;;;;;;4.72;1.70;;;12.70;61.10;;;;;;6275841;22;19999;-72
2023/03/02 13:10:39;;;;;;;3.85;1.48;;;12.70;60.10;;;;;;6275985;22;20465;-71